Time;durP1;ratioP1;P1;durP2;ratioP2;P2;SDS_P1;SDS_P2;PMS_P1;PMS_P2;Temp;Humidity;BMP_temperature;BMP_pressure;BME280_temperature;BME280_humidity;BME280_pressure;Samples;Min_cycle;Max_cycle;Signal;HPM_P1;HPM_P2
2021/03/20 00:00:45;;;;;;;;;;;;;;;17.45;60.58;100708.84;5110978;28;1381;-65
2021/03/20 00:03:11;;;;;;;;;;;;;;;17.43;60.49;100716.00;5094382;28;1459;-65
2021/03/20 00:05:38;;;;;;;;;;;;;;;17.41;60.37;100717.00;5109017;28;1216;-66
2021/03/20 00:08:05;;;;;;;;;;;;;;;17.37;60.43;100728.63;5081090;28;1771;-67
2021/03/20 00:10:32;;;;;;;;;;;;;;;17.36;60.56;100717.22;5087712;28;1248;-67
2021/03/20 00:12:59;;;;;;;;;;;;;;;17.36;60.15;100722.50;5088378;28;1215;-66
2021/03/20 00:15:26;;;;;;;;;;;;;;;17.35;60.43;100725.22;5088024;28;1929;-67
2021/03/20 00:17:53;;;;;;;;;;;;;;;17.33;60.47;100729.69;5069758;28;1314;-67
2021/03/20 00:20:30;;;;;;;;;;;;;;;17.32;60.21;100728.88;5088311;28;809;-68
2021/03/20 00:22:57;;;;;;;;;;;;;;;17.32;60.16;100730.66;5088326;28;1049;-68
2021/03/20 00:25:24;;;;;;;;;;;;;;;17.31;60.32;100736.84;5070336;28;1319;-68
2021/03/20 00:27:52;;;;;;;;;;;;;;;17.33;60.43;100733.19;5070294;28;1641;-66
2021/03/20 00:30:19;;;;;;;;;;;;;;;17.40;60.33;100739.84;5069841;28;1193;-67
2021/03/20 00:32:45;;;;;;;;;;;;;;;17.38;60.36;100731.19;5070041;28;1529;-66
2021/03/20 00:35:13;;;;;;;;;;;;;;;17.34;60.08;100734.91;5070083;28;1975;-66
2021/03/20 00:37:39;;;;;;;;;;;;;;;17.33;60.08;100742.84;5088359;28;1299;-66
2021/03/20 00:40:11;;;;;;;;;;;;;;;17.33;59.98;100742.84;5088180;28;849;-66
2021/03/20 00:42:37;;;;;;;;;;;;;;;17.35;60.31;100739.25;5089019;28;1282;-66
2021/03/20 00:45:09;;;;;;;;;;;;;;;17.35;59.79;100741.03;5071705;28;833;-66
2021/03/20 00:47:35;;;;;;;;;;;;;;;17.30;59.97;100743.88;5089886;28;1338;-66
2021/03/20 00:50:02;;;;;;;;;;;;;;;17.29;59.96;100747.47;5042963;28;816951;-66
2021/03/20 00:52:29;;;;;;;;;;;;;;;17.27;60.23;100745.81;5090311;28;1169;-65
2021/03/20 00:54:55;;;;;;;;;;;;;;;17.26;59.83;100746.75;5089610;28;1914;-66
2021/03/20 00:57:21;;;;;;;;;;;;;;;17.29;59.91;100741.34;5090659;28;1235;-66
2021/03/20 00:59:47;;;;;;;;;;;;;;;17.27;60.02;100741.41;5090753;28;813;-66
2021/03/20 01:02:14;;;;;;;;;;;;;;;17.23;59.60;100731.97;5090494;28;1305;-66
2021/03/20 01:04:41;;;;;;;;;;;;;;;17.24;59.81;100738.06;5090223;28;1053;-66
2021/03/20 01:07:07;;;;;;;;;;;;;;;17.23;59.59;100731.13;5090212;28;1332;-66
2021/03/20 01:09:33;;;;;;;;;;;;;;;17.20;59.67;100741.81;5090487;28;1138;-64
2021/03/20 01:12:00;;;;;;;;;;;;;;;17.19;59.71;100737.44;5072074;28;1207;-67
2021/03/20 01:14:26;;;;;;;;;;;;;;;17.20;59.84;100736.53;5072046;28;1209;-64
2021/03/20 01:16:53;;;;;;;;;;;;;;;17.18;59.55;100733.97;5090224;28;1954;-66
2021/03/20 01:19:19;;;;;;;;;;;;;;;17.21;59.42;100732.94;5071907;28;763;-66
2021/03/20 01:21:45;;;;;;;;;;;;;;;17.19;59.18;100735.69;5090153;28;1350;-66
2021/03/20 01:24:12;;;;;;;;;;;;;;;17.16;59.57;100735.84;5090253;28;1135;-66
2021/03/20 01:26:38;;;;;;;;;;;;;;;17.14;59.42;100728.94;5071875;28;1234;-65
2021/03/20 01:29:04;;;;;;;;;;;;;;;17.19;59.40;100737.44;5090129;28;785;-66
2021/03/20 01:31:30;;;;;;;;;;;;;;;17.17;59.55;100741.97;5089821;28;1291;-66
2021/03/20 01:33:58;;;;;;;;;;;;;;;17.16;59.48;100738.47;5071613;28;1414;-66
2021/03/20 01:36:25;;;;;;;;;;;;;;;17.14;59.69;100736.84;5071742;28;1914;-66
2021/03/20 01:38:52;;;;;;;;;;;;;;;17.14;59.36;100732.44;5071462;28;1422;-66
2021/03/20 01:41:20;;;;;;;;;;;;;;;17.10;59.51;100740.56;5089732;28;1334;-66
2021/03/20 01:43:46;;;;;;;;;;;;;;;17.12;59.63;100728.16;5090047;28;855;-66
2021/03/20 01:46:31;;;;;;;;;;;;;;;17.08;59.69;100721.34;5089849;28;1252;-66
2021/03/20 01:48:58;;;;;;;;;;;;;;;17.09;59.35;100720.41;5071331;28;1570;-66
2021/03/20 01:51:24;;;;;;;;;;;;;;;17.09;59.20;100712.50;5089616;28;1425;-66
2021/03/20 01:53:53;;;;;;;;;;;;;;;17.06;59.18;100716.16;5054708;28;1293;-66
2021/03/20 01:56:22;;;;;;;;;;;;;;;17.09;59.30;100715.16;5089584;28;1909;-66
2021/03/20 01:58:50;;;;;;;;;;;;;;;17.07;59.29;100711.75;5070779;28;1202;-66
2021/03/20 02:01:16;;;;;;;;;;;;;;;17.06;59.13;100733.72;5089565;28;1311;-66
2021/03/20 02:03:43;;;;;;;;;;;;;;;17.07;59.04;100724.91;5089715;28;852;-66
2021/03/20 02:06:09;;;;;;;;;;;;;;;17.05;59.05;100716.25;5089553;28;1306;-66
2021/03/20 02:08:37;;;;;;;;;;;;;;;17.01;59.07;100714.69;5089572;28;1047;-66
2021/03/20 02:11:09;;;;;;;;;;;;;;;17.02;59.29;100709.38;5089046;28;1238;-66
2021/03/20 02:13:35;;;;;;;;;;;;;;;17.03;58.96;100712.81;5089647;28;1051;-66
2021/03/20 02:16:08;;;;;;;;;;;;;;;17.00;58.98;100712.97;5089342;28;1977;-66
2021/03/20 02:18:57;;;;;;;;;;;;;;;16.98;58.89;100714.84;5089012;28;1582;-66
2021/03/20 02:21:24;;;;;;;;;;;;;;;17.00;58.98;100702.44;5078168;28;1350;-66
2021/03/20 02:24:05;;;;;;;;;;;;;;;16.97;58.81;100698.19;5088555;28;833;-65
2021/03/20 02:26:37;;;;;;;;;;;;;;;16.96;59.04;100700.91;5089171;28;1243;-65
2021/03/20 02:29:22;;;;;;;;;;;;;;;16.98;58.79;100693.78;5089462;28;785;-65
2021/03/20 02:32:07;;;;;;;;;;;;;;;16.92;58.97;100681.81;5088972;28;1241;-65
2021/03/20 02:34:33;;;;;;;;;;;;;;;16.97;58.86;100686.81;5089006;28;798;-65
2021/03/20 02:37:06;;;;;;;;;;;;;;;16.94;58.95;100693.94;5089009;28;1968;-65
2021/03/20 02:39:41;;;;;;;;;;;;;;;16.93;58.92;100676.44;5088958;28;779;-66
2021/03/20 02:42:32;;;;;;;;;;;;;;;16.90;58.76;100679.22;5089106;28;1264;-65
2021/03/20 02:45:02;;;;;;;;;;;;;;;16.88;58.78;100683.72;5089406;28;762;-65
2021/03/20 02:47:33;;;;;;;;;;;;;;;16.86;58.68;100675.06;5088997;28;1333;-66
2021/03/20 02:50:09;;;;;;;;;;;;;;;16.92;58.68;100695.81;5070881;28;1469;-66
2021/03/20 02:52:36;;;;;;;;;;;;;;;16.87;58.73;100687.28;5089059;28;1184;-65
2021/03/20 02:55:09;;;;;;;;;;;;;;;16.86;58.53;100680.34;5088880;28;1906;-66
2021/03/20 02:57:48;;;;;;;;;;;;;;;16.89;58.85;100684.59;5089073;28;1266;-66
2021/03/20 03:00:44;;;;;;;;;;;;;;;16.86;58.60;100675.06;5088865;28;845;-65
2021/03/20 03:03:11;;;;;;;;;;;;;;;16.88;58.77;100685.50;5053004;28;2042;-66
2021/03/20 03:05:42;;;;;;;;;;;;;;;16.88;58.55;100686.38;5088606;28;1244;-65
2021/03/20 03:08:13;;;;;;;;;;;;;;;16.85;58.88;100685.66;5070526;28;1082;-66
2021/03/20 03:10:59;;;;;;;;;;;;;;;16.85;58.79;100683.88;5088711;28;1268;-65
2021/03/20 03:13:28;;;;;;;;;;;;;;;16.85;58.81;100691.78;5088962;28;1120;-66
2021/03/20 03:16:00;;;;;;;;;;;;;;;16.85;58.82;100690.91;5088602;28;1906;-65
2021/03/20 03:18:42;;;;;;;;;;;;;;;16.85;58.72;100686.50;5088874;28;1190;-66
2021/03/20 03:21:09;;;;;;;;;;;;;;;16.82;58.45;100677.91;5088556;28;1252;-65
2021/03/20 03:23:38;;;;;;;;;;;;;;;16.81;58.62;100690.22;5071709;28;1193;-65
2021/03/20 03:26:28;;;;;;;;;;;;;;;16.81;58.51;100684.13;5088534;28;1192;-66
2021/03/20 03:29:02;;;;;;;;;;;;;;;16.81;58.53;100690.22;5078376;28;1238;-66
2021/03/20 03:31:31;;;;;;;;;;;;;;;16.83;58.80;100680.50;5088230;28;1361;-67
2021/03/20 03:34:05;;;;;;;;;;;;;;;16.80;58.55;100675.38;5088478;28;778;-66
2021/03/20 03:36:36;;;;;;;;;;;;;;;16.77;58.52;100686.06;5088283;28;1995;-66
2021/03/20 03:39:12;;;;;;;;;;;;;;;16.78;58.68;100671.94;5088481;28;849;-66
2021/03/20 03:41:39;;;;;;;;;;;;;;;16.75;58.58;100680.00;5088526;28;1304;-66
2021/03/20 03:44:07;;;;;;;;;;;;;;;16.79;58.58;100668.41;5091660;28;980;-67
2021/03/20 03:46:35;;;;;;;;;;;;;;;16.77;58.35;100685.19;5091630;28;1314;-67
2021/03/20 03:49:06;;;;;;;;;;;;;;;16.76;58.52;100668.56;5091990;28;1413;-66
2021/03/20 03:51:32;;;;;;;;;;;;;;;16.78;58.28;100671.09;5073637;28;1268;-66
2021/03/20 03:53:59;;;;;;;;;;;;;;;16.76;58.35;100684.34;5091830;28;870;-66
2021/03/20 03:56:38;;;;;;;;;;;;;;;16.75;58.42;100679.13;5073496;28;1907;-66
2021/03/20 03:59:12;;;;;;;;;;;;;;;16.72;58.78;100677.50;5091836;28;779;-66
2021/03/20 04:01:48;;;;;;;;;;;;;;;16.72;58.56;100674.03;5091649;28;1338;-66
2021/03/20 04:04:17;;;;;;;;;;;;;;;16.71;58.46;100681.09;5091718;28;750;-67
2021/03/20 04:06:46;;;;;;;;;;;;;;;16.71;58.18;100681.09;5072627;28;1596;-66
2021/03/20 04:09:32;;;;;;;;;;;;;;;16.72;58.60;100676.66;5091167;28;805;-67
2021/03/20 04:12:01;;;;;;;;;;;;;;;16.70;58.23;100678.53;5091493;28;1234;-66
2021/03/20 04:14:50;;;;;;;;;;;;;;;16.68;58.58;100678.63;5073149;28;1237;-66
2021/03/20 04:17:35;;;;;;;;;;;;;;;16.70;58.63;100678.53;5080742;28;2015;-66
2021/03/20 04:20:22;;;;;;;;;;;;;;;16.71;58.74;100681.09;5091404;28;1088;-66
2021/03/20 04:22:59;;;;;;;;;;;;;;;16.68;58.36;100683.03;5091699;28;1379;-66
2021/03/20 04:25:35;;;;;;;;;;;;;;;16.70;58.51;100689.91;5091518;28;1142;-66
2021/03/20 04:28:22;;;;;;;;;;;;;;;16.70;58.60;100699.56;5091865;28;1174;-65
2021/03/20 04:31:15;;;;;;;;;;;;;;;16.71;58.32;100707.41;5091321;28;1391;-66
2021/03/20 04:34:04;;;;;;;;;;;;;;;16.65;58.33;100702.44;5087589;28;1361;-66
2021/03/20 04:36:34;;;;;;;;;;;;;;;16.65;58.39;100707.69;5080574;28;1985;-66
2021/03/20 04:39:04;;;;;;;;;;;;;;;16.68;58.35;100711.94;5091492;28;1040;-66
2021/03/20 04:41:31;;;;;;;;;;;;;;;16.67;58.32;100707.59;5091281;28;1252;-66
2021/03/20 04:43:58;;;;;;;;;;;;;;;16.68;58.46;100704.91;5091091;28;861;-66
2021/03/20 04:46:28;;;;;;;;;;;;;;;16.67;58.45;100713.72;5091541;28;1307;-66
2021/03/20 04:49:05;;;;;;;;;;;;;;;16.67;58.06;100716.34;5090924;28;822;-67
2021/03/20 04:51:39;;;;;;;;;;;;;;;16.64;58.14;100732.28;5070581;28;1237;-66
2021/03/20 04:54:14;;;;;;;;;;;;;;;16.63;58.47;100730.56;5051315;28;785;-66
2021/03/20 04:56:47;;;;;;;;;;;;;;;16.67;58.25;100741.81;5052137;28;1899;-67
2021/03/20 04:59:20;;;;;;;;;;;;;;;16.64;58.20;100739.31;5070676;28;899;-66
2021/03/20 05:01:53;;;;;;;;;;;;;;;16.66;58.25;100734.81;5052560;28;1320;-64
2021/03/20 05:04:32;;;;;;;;;;;;;;;16.65;58.26;100744.53;5051828;28;1233;-66
2021/03/20 05:07:01;;;;;;;;;;;;;;;16.63;58.37;100735.84;5069885;28;1367;-66
2021/03/20 05:09:29;;;;;;;;;;;;;;;16.63;58.68;100745.50;5070214;28;833;-66
2021/03/20 05:11:59;;;;;;;;;;;;;;;16.61;58.38;100748.22;5069976;28;1313;-66
2021/03/20 05:14:29;;;;;;;;;;;;;;;16.61;58.34;100744.72;5051813;28;936;-66
2021/03/20 05:16:57;;;;;;;;;;;;;;;16.59;58.35;100760.59;5051817;28;1914;-66
2021/03/20 05:19:33;;;;;;;;;;;;;;;16.61;58.12;100758.72;5051766;28;1230;-66
2021/03/20 05:22:01;;;;;;;;;;;;;;;16.60;58.14;100778.06;5069939;28;1205;-66
2021/03/20 05:24:35;;;;;;;;;;;;;;;16.61;58.22;100769.25;5070154;28;917;-66
2021/03/20 05:27:03;;;;;;;;;;;;;;;16.56;58.14;100776.53;5069979;28;1243;-66
2021/03/20 05:29:30;;;;;;;;;;;;;;;16.60;58.36;100775.44;5070066;28;804;-65
2021/03/20 05:31:58;;;;;;;;;;;;;;;16.58;58.16;100779.91;5051967;28;1600;-67
2021/03/20 05:34:25;;;;;;;;;;;;;;;16.58;58.17;100784.31;5051613;28;1336;-65
2021/03/20 05:36:53;;;;;;;;;;;;;;;16.56;58.11;100784.41;5051265;28;1981;-66
2021/03/20 05:39:22;;;;;;;;;;;;;;;16.54;58.61;100794.13;5069831;28;1071;-66
2021/03/20 05:41:53;;;;;;;;;;;;;;;16.54;58.22;100799.38;5051467;28;1419;-66
2021/03/20 05:44:26;;;;;;;;;;;;;;;16.54;58.34;100794.13;5051404;28;1514;-67
2021/03/20 05:47:02;;;;;;;;;;;;;;;16.57;58.31;100798.38;5069432;28;1216;-66
2021/03/20 05:49:52;;;;;;;;;;;;;;;16.56;57.95;100801.97;5072162;28;1109;-66
2021/03/20 05:52:24;;;;;;;;;;;;;;;16.55;58.29;100801.09;5089818;28;1240;-66
2021/03/20 05:54:56;;;;;;;;;;;;;;;16.54;58.05;100807.28;5089064;28;885;-66
2021/03/20 05:57:41;;;;;;;;;;;;;;;16.53;57.86;100810.81;5089558;28;1953;-66
2021/03/20 06:00:13;;;;;;;;;;;;;;;16.57;58.03;100811.53;5089408;28;810;-66
2021/03/20 06:02:59;;;;;;;;;;;;;;;16.55;57.93;100814.25;5089414;28;1220;-66
2021/03/20 06:05:49;;;;;;;;;;;;;;;16.55;58.11;100814.25;5070426;28;805;-66
2021/03/20 06:08:32;;;;;;;;;;;;;;;16.51;58.14;100814.41;5052139;28;1161;-66
2021/03/20 06:11:06;;;;;;;;;;;;;;;16.49;58.29;100816.28;5070786;28;1389;-66
2021/03/20 06:13:36;;;;;;;;;;;;;;;16.51;58.12;100812.66;5054475;28;1311;-66
2021/03/20 06:16:27;;;;;;;;;;;;;;;16.47;58.01;100823.38;5071153;28;1976;-67
2021/03/20 06:19:14;;;;;;;;;;;;;;;16.46;58.02;100827.78;5079576;28;1229;-66
2021/03/20 06:21:51;;;;;;;;;;;;;;;16.49;58.11;100829.41;5070657;28;1448;-66
2021/03/20 06:24:17;;;;;;;;;;;;;;;16.47;58.01;100836.53;5070910;28;846;-66
2021/03/20 06:26:44;;;;;;;;;;;;;;;16.50;58.00;100839.88;5070745;28;1327;-66
2021/03/20 06:29:20;;;;;;;;;;;;;;;16.49;57.98;100834.69;5089138;28;790;-66
2021/03/20 06:31:46;;;;;;;;;;;;;;;16.45;58.01;100841.84;5089224;28;1263;-66
2021/03/20 06:34:14;;;;;;;;;;;;;;;16.46;58.22;100838.31;5088928;28;814;-66
2021/03/20 06:36:43;;;;;;;;;;;;;;;16.49;57.94;100851.31;5070664;28;1910;-67
2021/03/20 06:39:28;;;;;;;;;;;;;;;16.48;58.12;100854.84;5071298;28;815;-66
2021/03/20 06:42:17;;;;;;;;;;;;;;;16.48;58.23;100857.50;5070726;28;1267;-66
2021/03/20 06:44:46;;;;;;;;;;;;;;;16.44;57.82;100876.97;5071334;28;744;-66
2021/03/20 06:47:21;;;;;;;;;;;;;;;16.44;58.26;100876.97;5089199;28;1284;-66
2021/03/20 06:50:11;;;;;;;;;;;;;;;16.45;58.06;100875.19;5088923;28;1262;-66
2021/03/20 06:52:59;;;;;;;;;;;;;;;16.45;58.15;100893.56;5088894;28;1363;-66
2021/03/20 06:55:29;;;;;;;;;;;;;;;16.46;58.47;100893.53;5088409;28;1914;-64
2021/03/20 06:58:12;;;;;;;;;;;;;;;16.43;58.05;100896.28;5096737;28;1037;-65
2021/03/20 07:00:40;;;;;;;;;;;;;;;16.42;57.99;100905.09;5107995;28;1299;-67
2021/03/20 07:03:25;;;;;;;;;;;;;;;16.45;58.29;100904.09;5108397;28;1132;-67
2021/03/20 07:05:54;;;;;;;;;;;;;;;16.47;58.78;100897.88;5090340;28;1240;-67
2021/03/20 07:08:27;;;;;;;;;;;;;;;16.51;59.39;100904.69;5089960;28;1089;-66
2021/03/20 07:10:55;;;;;;;;;;;;;;;16.52;58.32;100909.03;5108183;28;1252;-65
2021/03/20 07:13:28;;;;;;;;;;;;;;;16.49;58.26;100906.53;5107594;28;1332;-66
2021/03/20 07:16:04;;;;;;;;;;;;;;;16.48;58.43;100909.22;5108073;28;1996;-66
2021/03/20 07:18:38;;;;;;;;;;;;;;;16.49;58.66;100911.78;5112404;28;928;-66
2021/03/20 07:21:22;;;;;;;;;;;;;;;16.48;58.50;100925.84;5112117;28;1337;-64
2021/03/20 07:23:56;;;;;;;;;;;;;;;16.45;58.70;100926.00;5112018;28;893;-66
2021/03/20 07:26:23;;;;;;;;;;;;;;;16.46;58.76;100934.72;5111530;28;1184;-66
2021/03/20 07:28:52;;;;;;;;;;;;;;;16.46;58.87;100929.47;5094332;28;1280;-63
2021/03/20 07:31:19;;;;;;;;;;;;;;;16.46;58.99;100921.59;5094258;28;1291;-65
2021/03/20 07:33:47;;;;;;;;;;;;;;;16.43;58.99;100933.09;5093019;28;1578;-66
2021/03/20 07:36:19;;;;;;;;;;;;;;;16.50;58.77;100938.94;5111879;28;1930;-65
2021/03/20 07:38:46;;;;;;;;;;;;;;;16.51;58.85;100936.22;5111786;28;845;-65
2021/03/20 07:41:15;;;;;;;;;;;;;;;16.50;58.99;100941.56;5111615;28;1228;-64
2021/03/20 07:43:56;;;;;;;;;;;;;;;16.47;59.30;100950.47;5111805;28;806;-64
2021/03/20 07:46:23;;;;;;;;;;;;;;;16.47;58.94;100953.09;5111252;28;1216;-64
2021/03/20 07:48:58;;;;;;;;;;;;;;;16.47;59.04;100953.09;5111349;28;842;-66
2021/03/20 07:51:25;;;;;;;;;;;;;;;16.45;58.97;100952.28;5093892;28;1581;-66
2021/03/20 07:53:53;;;;;;;;;;;;;;;16.45;59.32;100952.28;5094232;28;863;-66
2021/03/20 07:56:32;;;;;;;;;;;;;;;16.45;59.11;100956.69;5111910;28;1938;-65
2021/03/20 07:59:19;;;;;;;;;;;;;;;16.42;59.16;100953.28;5112042;28;793;-64
2021/03/20 08:01:55;;;;;;;;;;;;;;;16.43;59.55;100954.13;5111782;28;1800;-67
2021/03/20 08:04:42;;;;;;;;;;;;;;;16.49;59.36;100958.28;5092774;28;841;-65
2021/03/20 08:07:08;;;;;;;;;;;;;;;16.49;59.10;100964.38;5101020;28;1585;-66
2021/03/20 08:09:37;;;;;;;;;;;;;;;16.48;58.99;100961.81;5111802;28;977;-66
2021/03/20 08:12:03;;;;;;;;;;;;;;;16.47;59.08;100962.75;5111622;28;1228;-67
2021/03/20 08:14:53;;;;;;;;;;;;;;;16.41;59.20;100959.44;5111579;28;849;-68
2021/03/20 08:17:21;;;;;;;;;;;;;;;16.45;59.19;100965.44;5111595;28;1999;-68
2021/03/20 08:19:48;;;;;;;;;;;;;;;16.46;59.68;100976.81;5111362;28;853;-68
2021/03/20 08:22:21;;;;;;;;;;;;;;;16.46;59.35;100980.28;5093235;28;1224;-69
2021/03/20 08:24:56;;;;;;;;;;;;;;;16.40;59.24;100976.16;5111269;28;824;-69
2021/03/20 08:27:28;;;;;;;;;;;;;;;16.41;58.71;100969.13;5092527;28;1209;-69
2021/03/20 08:30:13;;;;;;;;;;;;;;;16.47;58.57;100974.13;5111283;28;995;-66
2021/03/20 08:32:58;;;;;;;;;;;;;;;16.51;58.44;100965.16;5111354;28;1204;-66
2021/03/20 08:35:51;;;;;;;;;;;;;;;16.56;57.98;100962.38;5111350;28;1973;-65
2021/03/20 08:38:32;;;;;;;;;;;;;;;16.59;57.94;100963.09;5087156;28;1394;-65
2021/03/20 08:41:01;;;;;;;;;;;;;;;16.60;57.54;100964.78;5111289;28;1367;-69
2021/03/20 08:43:49;;;;;;;;;;;;;;;16.61;57.49;100965.66;5110746;28;1167;-69
2021/03/20 08:46:34;;;;;;;;;;;;;;;16.65;58.13;100973.34;5091668;28;1248;-69
2021/03/20 08:49:01;;;;;;;;;;;;;;;16.65;53.87;100968.09;5092710;28;1047;-68
2021/03/20 08:51:27;;;;;;;;;;;;;;;16.67;51.38;100979.38;5092290;28;1359;-67
2021/03/20 08:53:53;;;;;;;;;;;;;;;16.72;57.97;100976.53;5111053;28;805;-66
2021/03/20 08:56:29;;;;;;;;;;;;;;;16.68;57.49;100973.22;5110294;28;1906;-66
2021/03/20 08:59:04;;;;;;;;;;;;;;;16.70;57.43;100981.03;5121782;27;992;-66
2021/03/20 09:01:33;;;;;;;;;;;;;;;16.68;57.03;100975.84;5129806;27;1359;-66
2021/03/20 09:04:01;;;;;;;;;;;;;;;16.70;56.89;100983.66;5092549;28;1247;-66
2021/03/20 09:06:30;;;;;;;;;;;;;;;16.71;57.20;100980.09;5110229;28;1258;-65
2021/03/20 09:09:00;;;;;;;;;;;;;;;16.81;58.83;100986.69;5109063;27;977;-66
2021/03/20 09:11:48;;;;;;;;;;;;;;;16.79;57.03;100994.63;5112794;27;1385;-67
2021/03/20 09:14:20;;;;;;;;;;;;;;;16.78;58.39;100997.31;5089588;28;830;-64
2021/03/20 09:16:52;;;;;;;;;;;;;;;16.81;57.15;100994.56;5070785;28;1980;-64
2021/03/20 09:19:21;;;;;;;;;;;;;;;16.80;57.10;100990.22;5089772;28;881;-64
2021/03/20 09:21:48;;;;;;;;;;;;;;;16.81;57.02;100995.41;5071357;28;1372;-63
2021/03/20 09:24:19;;;;;;;;;;;;;;;16.81;57.30;100994.56;5089475;28;893;-63
2021/03/20 09:26:47;;;;;;;;;;;;;;;16.83;58.02;100993.56;5088891;28;1361;-64
2021/03/20 09:29:15;;;;;;;;;;;;;;;16.97;59.49;100997.31;5122826;27;1087;-64
2021/03/20 09:31:58;;;;;;;;;;;;;;;17.06;59.37;101002.19;5130499;27;1318;-66
2021/03/20 09:34:27;;;;;;;;;;;;;;;17.01;59.90;101004.19;5071624;28;759;-66
2021/03/20 09:36:53;;;;;;;;;;;;;;;17.00;60.18;101002.44;5090809;27;1929;-65
2021/03/20 09:39:38;;;;;;;;;;;;;;;16.96;59.71;101008.81;5110912;27;1228;-66
2021/03/20 09:42:25;;;;;;;;;;;;;;;17.01;60.17;101006.81;5130144;27;1220;-71
2021/03/20 09:44:54;;;;;;;;;;;;;;;17.02;60.58;101011.16;5129841;27;1189;-68
2021/03/20 09:47:33;;;;;;;;;;;;;;;17.01;60.44;100997.13;5129685;27;1224;-67
2021/03/20 09:50:32;;;;;;;;;;;;;;;;;;;;;
2021/03/20 09:53:17;;;;;;;;;;;;;;;17.05;60.46;100997.84;5082690;28;1583;-70
2021/03/20 09:55:44;;;;;;;;;;;;;;;17.05;60.49;100997.84;5089171;28;1910;-67
2021/03/20 09:58:20;;;;;;;;;;;;;;;17.06;60.32;101008.31;5085085;28;1406;-69
2021/03/20 10:00:46;;;;;;;;;;;;;;;17.06;60.50;101002.19;5109599;28;1223;-69
2021/03/20 10:03:32;;;;;;;;;;;;;;;17.29;59.80;100999.34;5121063;27;1055;-69
2021/03/20 10:06:17;;;;;;;;;;;;;;;17.19;59.17;100998.06;5096734;28;1267;-69
2021/03/20 10:08:44;;;;;;;;;;;;;;;17.06;57.27;100986.38;5124639;27;1047;-68
2021/03/20 10:11:32;;;;;;;;;;;;;;;17.01;56.60;100996.28;5128932;27;1188;-67
2021/03/20 10:13:58;;;;;;;;;;;;;;;16.99;56.73;100990.25;5125108;27;1355;-69
2021/03/20 10:17:08;;;;;;;;;;;;;;;17.03;58.66;100991.78;5104648;28;1909;-68
2021/03/20 10:19:43;;;;;;;;;;;;;;;17.10;58.17;100994.09;5084025;28;1546;-68
2021/03/20 10:22:18;;;;;;;;;;;;;;;17.07;56.03;100988.09;5079165;27;1419;-68
2021/03/20 10:24:49;;;;;;;;;;;;;;;17.02;56.20;100987.47;5063730;28;1255;-66
2021/03/20 10:27:36;;;;;;;;;;;;;;;17.05;58.30;100987.31;5073314;27;1320;-69
2021/03/20 10:30:16;;;;;;;;;;;;;;;17.04;56.54;100989.09;5097870;28;1529;-68
2021/03/20 10:33:01;;;;;;;;;;;;;;;17.06;56.75;100981.97;5100689;27;1262;-67
2021/03/20 10:35:30;;;;;;;;;;;;;;;17.02;55.79;100979.56;5052522;28;1484;-70
2021/03/20 10:37:57;;;;;;;;;;;;;;;17.05;58.57;100985.56;5106238;27;1905;-66
2021/03/20 10:40:25;;;;;;;;;;;;;;;17.17;58.79;100987.63;5129424;27;1267;-69
2021/03/20 10:42:55;;;;;;;;;;;;;;;17.09;56.26;100980.97;5111042;27;1531;-69
2021/03/20 10:45:31;;;;;;;;;;;;;;;17.13;57.18;100972.03;5129925;28;1147;-69
2021/03/20 10:48:11;;;;;;;;;;;;;;;17.08;55.25;100966.13;5093501;28;1277;-69
2021/03/20 10:50:43;;;;;;;;;;;;;;;17.07;53.41;100972.31;5073688;28;1674;-69
2021/03/20 10:53:21;;;;;;;;;;;;;;;17.22;58.00;100968.97;5096859;27;1040;-67
2021/03/20 10:55:52;;;;;;;;;;;;;;;17.26;58.20;100973.16;5115238;27;2004;-68
2021/03/20 10:58:25;;;;;;;;;;;;;;;17.34;56.08;100961.34;5132177;27;1123;-67
2021/03/20 11:00:54;;;;;;;;;;;;;;;17.10;45.30;100966.91;5132743;27;1267;-68
2021/03/20 11:03:29;;;;;;;;;;;;;;;17.05;44.98;100968.91;5113792;27;1018;-68
2021/03/20 11:06:07;;;;;;;;;;;;;;;17.03;46.32;100966.31;5133591;27;1236;-68
2021/03/20 11:08:33;;;;;;;;;;;;;;;17.05;46.55;100950.47;5132344;27;1102;-68
2021/03/20 11:11:09;;;;;;;;;;;;;;;17.07;48.85;100951.25;5114609;27;1224;-68
2021/03/20 11:13:46;;;;;;;;;;;;;;;17.04;47.66;100954.88;5133032;27;1101;-70
2021/03/20 11:16:18;;;;;;;;;;;;;;;17.05;46.64;100947.84;5133030;27;1946;-69
2021/03/20 11:18:54;;;;;;;;;;;;;;;17.06;46.94;100939.00;5133114;27;995;-69
2021/03/20 11:21:24;;;;;;;;;;;;;;;17.08;47.65;100942.44;5097882;27;1623;-68
2021/03/20 11:24:04;;;;;;;;;;;;;;;17.07;47.17;100932.81;5097242;27;2096;-68
2021/03/20 11:26:33;;;;;;;;;;;;;;;17.02;46.24;100937.47;5133234;27;1281;-68
2021/03/20 11:29:00;;;;;;;;;;;;;;;16.99;44.56;100941.09;5133031;27;1073;-68
2021/03/20 11:31:30;;;;;;;;;;;;;;;17.01;44.83;100935.75;5113829;27;1217;-68
2021/03/20 11:33:56;;;;;;;;;;;;;;;17.04;46.21;100931.19;5132377;27;1099;-69
2021/03/20 11:36:25;;;;;;;;;;;;;;;17.02;45.42;100927.78;5131910;27;1929;-68
2021/03/20 11:38:52;;;;;;;;;;;;;;;17.05;46.05;100937.31;5115431;27;1207;-67
2021/03/20 11:41:27;;;;;;;;;;;;;;;17.06;45.72;100931.13;5112005;28;1208;-68
2021/03/20 11:43:56;;;;;;;;;;;;;;;17.07;46.02;100935.47;5093253;28;1215;-68
2021/03/20 11:46:27;;;;;;;;;;;;;;;17.07;46.18;100930.19;5111991;28;1310;-68
2021/03/20 11:49:18;;;;;;;;;;;;;;;17.06;45.01;100929.34;5111658;28;1098;-68
2021/03/20 11:51:48;;;;;;;;;;;;;;;17.06;44.49;100928.47;5093796;28;1339;-67
2021/03/20 11:54:22;;;;;;;;;;;;;;;17.06;45.08;100928.47;5111802;28;1054;-68
2021/03/20 11:57:11;;;;;;;;;;;;;;;17.32;48.68;100923.72;5093021;28;1905;-69
2021/03/20 11:59:42;;;;;;;;;;;;;;;17.36;48.55;100929.66;5104307;28;1403;-68
2021/03/20 12:02:31;;;;;;;;;;;;;;;17.25;49.48;100921.44;5095030;28;1242;-67
2021/03/20 12:05:07;;;;;;;;;;;;;;;17.22;47.53;100932.09;5131002;27;1078;-69
2021/03/20 12:07:38;;;;;;;;;;;;;;;17.20;50.02;100924.28;5113471;27;1350;-66
2021/03/20 12:10:31;;;;;;;;;;;;;;;17.13;51.31;100929.91;5131987;27;1052;-72
2021/03/20 12:12:58;;;;;;;;;;;;;;;17.07;50.40;100920.53;5128990;27;1183;-69
2021/03/20 12:15:36;;;;;;;;;;;;;;;17.07;50.87;100922.31;5113451;27;1374;-69
2021/03/20 12:18:13;;;;;;;;;;;;;;;17.19;51.57;100914.69;5112946;27;1902;-70
2021/03/20 12:20:43;;;;;;;;;;;;;;;17.31;51.68;100915.88;5112825;27;1286;-70
2021/03/20 12:23:13;;;;;;;;;;;;;;;17.31;50.81;100915.88;5111857;27;1208;-68
2021/03/20 12:26:00;;;;;;;;;;;;;;;17.26;50.11;100916.09;5131494;27;1292;-70
2021/03/20 12:28:43;;;;;;;;;;;;;;;17.20;51.95;100915.53;5112779;27;1304;-68
2021/03/20 12:31:23;;;;;;;;;;;;;;;17.18;54.25;100912.09;5131483;27;1282;-69
2021/03/20 12:34:23;;;;;;;;;;;;;;;17.14;54.77;100906.16;5112391;27;1274;-68
2021/03/20 12:36:51;;;;;;;;;;;;;;;17.11;54.80;100905.44;5131061;27;1995;-68
2021/03/20 12:39:23;;;;;;;;;;;;;;;17.09;54.88;100902.00;5113329;27;1074;-67
2021/03/20 12:41:58;;;;;;;;;;;;;;;17.10;55.13;100904.59;5114562;27;1360;-68
2021/03/20 12:44:25;;;;;;;;;;;;;;;17.10;55.21;100904.59;5131907;27;1053;-67
2021/03/20 12:46:54;;;;;;;;;;;;;;;17.10;55.17;100898.47;5112629;27;1295;-68
2021/03/20 12:49:23;;;;;;;;;;;;;;;17.09;55.32;100902.88;5131693;27;1360;-68
2021/03/20 12:51:55;;;;;;;;;;;;;;;17.08;55.40;100895.06;5112871;27;1275;-67
2021/03/20 12:54:23;;;;;;;;;;;;;;;17.09;55.53;100894.13;5111003;28;966;-66
2021/03/20 12:56:52;;;;;;;;;;;;;;;17.10;55.36;100893.19;5091978;28;1979;-68
2021/03/20 12:59:19;;;;;;;;;;;;;;;17.09;55.59;100886.22;5075777;28;1253;-67
2021/03/20 13:01:46;;;;;;;;;;;;;;;17.08;55.47;100882.75;5092156;28;1365;-68
2021/03/20 13:04:14;;;;;;;;;;;;;;;17.09;55.31;100879.19;5093296;28;1786;-68
2021/03/20 13:06:41;;;;;;;;;;;;;;;17.10;55.50;100877.41;5110713;28;1322;-69
2021/03/20 13:09:08;;;;;;;;;;;;;;;17.11;55.52;100884.41;5111121;27;1262;-68
2021/03/20 13:11:35;;;;;;;;;;;;;;;17.12;52.17;100870.28;5112757;27;1301;-69
2021/03/20 13:14:03;;;;;;;;;;;;;;;17.10;54.82;100872.16;5111429;28;1066;-69
2021/03/20 13:16:30;;;;;;;;;;;;;;;17.05;55.40;100867.13;5095159;27;1906;-69
2021/03/20 13:18:59;;;;;;;;;;;;;;;17.22;55.18;100877.69;5093832;28;1276;-67
2021/03/20 13:21:26;;;;;;;;;;;;;;;17.24;55.28;100852.13;5107618;28;1746;-65